createdAt,value
2018-01-04T00:01:28.655Z,4.27
2018-01-04T00:03:39.954Z,3.43
2018-01-04T00:05:41.025Z,3.43
2018-01-04T00:07:42.992Z,3.90
2018-01-04T00:10:03.929Z,4.20
2018-01-04T00:12:05.254Z,3.63
2018-01-04T00:14:06.262Z,2.50
2018-01-04T00:16:07.582Z,3.50
2018-01-04T00:23:14.253Z,3.13
2018-01-04T00:25:15.555Z,2.40
2018-01-04T00:27:16.729Z,3.40
2018-01-04T00:29:18.475Z,2.87
2018-01-04T00:31:19.585Z,2.40
2018-01-04T00:33:21.719Z,2.50
2018-01-04T00:35:22.800Z,3.83
2018-01-04T00:39:53.724Z,3.20
2018-01-04T00:41:55.852Z,3.10
2018-01-04T00:44:22.064Z,3.30
2018-01-04T00:46:23.226Z,2.77
2018-01-04T00:55:27.195Z,3.23
2018-01-04T00:59:57.838Z,3.37
2018-01-04T01:04:44.020Z,3.37
2018-01-04T01:06:45.049Z,2.80
2018-01-04T01:08:46.175Z,2.87
2018-01-04T01:10:48.901Z,4.40
2018-01-04T01:12:50.257Z,3.67
2018-01-04T01:14:51.288Z,3.30
2018-01-04T01:17:12.023Z,4.30
2018-01-04T01:22:15.222Z,4.23
2018-01-04T01:24:38.513Z,4.00
2018-01-04T01:26:41.537Z,4.50
2018-01-04T01:28:42.677Z,4.03
2018-01-04T01:33:24.928Z,4.90
2018-01-04T01:35:25.932Z,4.83
2018-01-04T01:40:02.482Z,4.27
2018-01-04T01:42:24.773Z,4.90
2018-01-04T01:47:09.618Z,5.00
2018-01-04T01:49:14.924Z,5.40
2018-01-04T01:51:16.181Z,4.93
2018-01-04T01:53:35.061Z,5.00
2018-01-04T01:55:36.993Z,5.97
2018-01-04T01:57:38.145Z,5.17
2018-01-04T01:59:39.129Z,5.63
2018-01-04T02:01:40.372Z,5.20
2018-01-04T02:03:41.601Z,4.73
2018-01-04T02:05:42.761Z,5.40
2018-01-04T02:08:04.057Z,6.57
2018-01-04T02:18:04.620Z,6.47
2018-01-04T02:20:18.609Z,5.33
2018-01-04T02:35:53.487Z,5.50
2018-01-04T02:38:07.746Z,5.00
2018-01-04T02:40:21.355Z,6.63
2018-01-04T02:45:15.186Z,5.80
2018-01-04T02:47:17.733Z,5.13
2018-01-04T02:49:18.961Z,5.07
2018-01-04T02:51:20.010Z,6.03
2018-01-04T02:55:58.559Z,5.40
2018-01-04T03:08:36.784Z,5.87
2018-01-04T03:10:37.835Z,6.37
2018-01-04T03:12:38.940Z,5.73
2018-01-04T03:14:40.043Z,5.03
2018-01-04T03:16:41.005Z,5.97
2018-01-04T03:18:42.030Z,5.20
2018-01-04T03:20:44.739Z,4.30
2018-01-04T03:23:11.264Z,5.13
2018-01-04T03:30:14.439Z,5.57
2018-01-04T03:34:50.901Z,5.27
2018-01-04T03:37:00.440Z,5.63
2018-01-04T03:44:04.872Z,5.60
2018-01-04T03:46:27.666Z,6.30
2018-01-04T03:48:28.815Z,5.10
2018-01-04T03:53:07.038Z,5.03
2018-01-04T03:55:29.401Z,5.00
2018-01-04T04:04:49.459Z,5.43
2018-01-04T04:11:59.984Z,5.70
2018-01-04T04:14:02.120Z,6.60
2018-01-04T04:16:03.285Z,5.80
2018-01-04T04:20:31.991Z,6.10
2018-01-04T04:22:33.112Z,7.47
2018-01-04T04:27:10.688Z,5.70
2018-01-04T04:29:11.707Z,6.77
2018-01-04T04:31:12.677Z,7.20
2018-01-04T04:33:22.724Z,6.40
2018-01-04T04:38:00.498Z,7.30
2018-01-04T04:40:02.033Z,7.20
2018-01-04T04:42:03.064Z,6.20
2018-01-04T04:44:04.161Z,8.00
2018-01-04T04:53:24.507Z,6.27
2018-01-04T04:55:25.497Z,5.53
2018-01-04T04:59:55.840Z,7.53
2018-01-04T05:01:57.308Z,5.60
2018-01-04T05:03:58.329Z,6.50
2018-01-04T05:06:21.249Z,6.47
2018-01-04T05:10:50.048Z,5.03
2018-01-04T05:17:56.081Z,7.07
2018-01-04T05:20:05.382Z,7.03
2018-01-04T05:22:06.419Z,6.30
2018-01-04T05:24:08.602Z,5.70
2018-01-04T05:28:48.402Z,5.87
2018-01-04T05:30:49.924Z,5.30
2018-01-04T05:35:19.116Z,6.17
2018-01-04T05:37:20.277Z,5.70
2018-01-04T05:41:50.400Z,7.33
2018-01-04T05:43:51.567Z,6.53
2018-01-04T05:46:04.689Z,6.50
2018-01-04T05:48:07.524Z,7.23
2018-01-04T05:50:08.612Z,7.37
2018-01-04T05:52:09.616Z,6.50
2018-01-04T05:54:14.653Z,5.57
2018-01-04T05:56:15.806Z,6.30
2018-01-04T06:00:45.893Z,6.80
2018-01-04T06:02:47.741Z,6.30
2018-01-04T06:05:08.281Z,6.73
2018-01-04T06:09:47.386Z,6.80
2018-01-04T06:11:48.474Z,6.97
2018-01-04T06:16:27.116Z,6.17
2018-01-04T06:18:28.183Z,6.90
2018-01-04T06:20:29.168Z,7.13
2018-01-04T06:25:13.004Z,7.10
2018-01-04T06:27:14.344Z,6.23
2018-01-04T06:31:43.603Z,6.77
2018-01-04T06:33:44.700Z,6.20
2018-01-04T06:35:46.109Z,7.33
2018-01-04T06:37:53.286Z,8.23
2018-01-04T06:39:58.259Z,7.97
2018-01-04T06:44:26.840Z,7.83
2018-01-04T06:46:27.816Z,7.43
2018-01-04T06:54:28.073Z,7.50
2018-01-04T06:56:54.584Z,7.90
2018-01-04T06:58:57.905Z,7.87
2018-01-04T07:00:59.467Z,6.70
2018-01-04T07:03:07.666Z,8.13
2018-01-04T07:05:12.905Z,10.38
2018-01-04T07:07:31.448Z,9.63
2018-01-04T07:09:34.666Z,9.67
2018-01-04T07:11:35.826Z,8.40
2018-01-04T07:13:40.660Z,8.60
2018-01-04T07:15:49.360Z,8.43
2018-01-04T07:18:01.490Z,9.33
2018-01-04T07:20:02.439Z,9.70
2018-01-04T07:22:11.637Z,9.30
2018-01-04T07:24:12.657Z,8.73
2018-01-04T07:26:13.608Z,9.50
2018-01-04T07:28:18.985Z,9.47
2018-01-04T07:30:19.991Z,7.57
2018-01-04T07:32:20.954Z,8.50
2018-01-04T07:34:22.384Z,8.67
2018-01-04T07:38:42.732Z,12.10
2018-01-04T07:40:43.753Z,10.40
2018-01-04T07:45:44.742Z,6.73
2018-01-04T07:47:45.867Z,8.50
2018-01-04T07:55:04.779Z,7.57
2018-01-04T07:57:05.954Z,7.53
2018-01-04T07:59:07.060Z,7.70
2018-01-04T08:03:57.965Z,8.13
2018-01-04T08:06:04.556Z,7.33
2018-01-04T08:08:05.748Z,8.00
2018-01-04T08:10:06.714Z,7.67
2018-01-04T08:12:07.665Z,6.70
2018-01-04T08:14:19.052Z,7.70
2018-01-04T08:21:06.959Z,9.07
2018-01-04T08:23:07.932Z,8.90
2018-01-04T08:25:22.311Z,7.10
2018-01-04T08:27:23.313Z,8.43
2018-01-04T08:29:26.341Z,8.47
2018-01-04T08:31:27.332Z,9.67
2018-01-04T08:33:28.288Z,7.90
2018-01-04T08:35:29.659Z,9.07
2018-01-04T08:37:57.541Z,9.60
2018-01-04T08:40:01.096Z,8.80
2018-01-04T08:42:02.091Z,9.07
2018-01-04T08:49:24.958Z,10.23
2018-01-04T08:51:25.953Z,10.07
2018-01-04T08:53:27.061Z,9.63
2018-01-04T09:00:40.789Z,9.17
2018-01-04T09:05:05.424Z,8.77
2018-01-04T09:07:20.995Z,11.20
2018-01-04T09:09:35.128Z,9.97
2018-01-04T09:11:36.095Z,11.30
2018-01-04T09:13:37.057Z,10.87
2018-01-04T09:18:14.491Z,10.50
2018-01-04T09:20:17.030Z,9.00
2018-01-04T09:22:18.052Z,10.17
2018-01-04T09:26:56.153Z,11.03
2018-01-04T09:29:03.689Z,9.93
2018-01-04T09:31:17.702Z,12.30
2018-01-04T09:33:44.494Z,9.73
2018-01-04T09:35:45.490Z,11.00
2018-01-04T09:37:46.439Z,9.93
2018-01-04T09:39:47.432Z,8.47
2018-01-04T09:41:50.691Z,11.17
2018-01-04T09:43:51.674Z,13.10
2018-01-04T09:45:52.678Z,9.93
2018-01-04T09:48:02.300Z,12.27
2018-01-04T09:50:18.990Z,10.87
2018-01-04T09:52:20.018Z,11.17
2018-01-04T09:54:21.050Z,12.50
2018-01-04T09:58:29.616Z,11.37
2018-01-04T10:00:30.710Z,10.67
2018-01-04T10:02:32.220Z,12.90
2018-01-04T10:04:44.908Z,10.40
2018-01-04T10:06:55.060Z,13.03
2018-01-04T10:08:56.070Z,11.40
2018-01-04T10:10:57.119Z,9.00
2018-01-04T10:13:06.931Z,10.63
2018-01-04T10:17:24.911Z,11.77
2018-01-04T10:19:25.925Z,11.17
2018-01-04T10:21:26.916Z,12.07
2018-01-04T10:23:27.895Z,12.03
2018-01-04T10:28:06.412Z,10.50
2018-01-04T10:30:10.758Z,10.80
2018-01-04T10:32:11.728Z,11.73
2018-01-04T10:34:14.403Z,12.70
2018-01-04T10:36:40.185Z,11.27
2018-01-04T10:38:51.361Z,11.23
2018-01-04T10:40:52.364Z,11.60
2018-01-04T10:43:06.355Z,12.47
2018-01-04T10:45:07.346Z,11.33
2018-01-04T10:47:08.324Z,12.20
2018-01-04T10:51:46.479Z,11.80
2018-01-04T10:53:49.238Z,11.30
2018-01-04T11:00:46.774Z,11.83
2018-01-04T11:07:41.679Z,11.80
2018-01-04T11:09:42.689Z,12.50
2018-01-04T11:11:43.697Z,12.97
2018-01-04T11:13:44.669Z,12.93
2018-01-04T11:18:30.433Z,10.77
2018-01-04T11:20:31.432Z,11.20
2018-01-04T11:22:38.377Z,13.13
2018-01-04T11:27:06.850Z,10.10
2018-01-04T11:29:07.864Z,13.70
2018-01-04T11:36:04.525Z,12.30
2018-01-04T11:38:06.148Z,13.27
2018-01-04T11:40:07.209Z,10.90
2018-01-04T11:42:12.037Z,13.40
2018-01-04T11:46:40.601Z,12.63
2018-01-04T11:48:53.469Z,12.93
2018-01-04T11:50:55.990Z,13.40
2018-01-04T11:58:14.097Z,11.47
2018-01-04T12:02:42.898Z,13.53
2018-01-04T12:04:44.415Z,14.40
2018-01-04T12:09:13.454Z,12.97
2018-01-04T12:11:15.216Z,12.50
2018-01-04T12:13:23.311Z,13.97
2018-01-04T12:20:45.521Z,14.70
2018-01-04T12:22:46.737Z,15.20
2018-01-04T12:24:47.880Z,14.03
2018-01-04T12:26:55.859Z,13.17
2018-01-04T12:28:57.551Z,14.90
2018-01-04T12:31:02.162Z,14.50
2018-01-04T12:35:30.935Z,15.33
2018-01-04T12:37:34.485Z,13.30
2018-01-04T12:39:35.615Z,13.60
2018-01-04T12:41:49.338Z,13.07
2018-01-04T12:46:19.548Z,12.37
2018-01-04T12:50:49.374Z,13.63
2018-01-04T12:53:00.384Z,14.33
2018-01-04T12:57:39.218Z,11.53
2018-01-04T12:59:40.360Z,14.80
2018-01-04T13:01:41.492Z,13.43
2018-01-04T13:08:17.240Z,12.90
2018-01-04T13:13:03.624Z,12.80
2018-01-04T13:15:11.957Z,11.80
2018-01-04T13:17:13.578Z,14.77
2018-01-04T13:19:29.584Z,14.23
2018-01-04T13:21:41.428Z,11.00
2018-01-04T13:23:42.432Z,13.20
2018-01-04T13:43:10.384Z,14.32
2018-01-04T13:47:48.568Z,12.00
2018-01-04T13:52:40.209Z,11.03
2018-01-04T13:54:41.776Z,10.37
2018-01-04T14:04:09.892Z,10.97
2018-01-04T14:06:10.881Z,11.47
2018-01-04T14:13:02.812Z,10.60
2018-01-04T14:15:04.471Z,10.63
2018-01-04T14:24:37.595Z,9.40
2018-01-04T14:29:06.100Z,8.60
2018-01-04T14:38:33.915Z,8.97
2018-01-04T14:40:39.492Z,8.33
2018-01-04T14:45:26.147Z,8.60
2018-01-04T14:47:27.628Z,8.40
2018-01-04T14:49:28.840Z,8.13
2018-01-04T14:51:29.895Z,9.73
2018-01-04T14:58:28.094Z,8.10
2018-01-04T15:00:29.501Z,8.70
2018-01-04T15:04:58.465Z,7.30
2018-01-04T15:07:00.926Z,8.40
2018-01-04T15:09:26.136Z,7.80
2018-01-04T15:13:56.347Z,7.93
2018-01-04T15:15:57.459Z,6.87
2018-01-04T15:17:58.490Z,8.13
2018-01-04T15:19:59.533Z,7.73
2018-01-04T15:27:06.244Z,7.70
2018-01-04T15:29:08.010Z,7.83
2018-01-04T15:33:47.135Z,8.13
2018-01-04T15:35:54.384Z,7.07
2018-01-04T15:42:51.167Z,7.13
2018-01-04T15:44:52.169Z,7.00
2018-01-04T15:46:53.654Z,6.80
2018-01-04T15:48:55.107Z,6.63
2018-01-04T15:50:56.241Z,8.00
2018-01-04T15:52:57.326Z,7.10
2018-01-04T15:57:30.041Z,6.40
2018-01-04T15:59:35.863Z,6.30
2018-01-04T16:01:36.971Z,7.20
2018-01-04T16:03:38.021Z,6.10
2018-01-04T16:08:16.882Z,7.87
2018-01-04T16:10:18.815Z,5.40
2018-01-04T16:12:22.244Z,6.63
2018-01-04T16:14:37.185Z,6.83
2018-01-04T16:16:38.706Z,5.77
2018-01-04T16:18:42.884Z,6.00
2018-01-04T16:21:08.080Z,5.83
2018-01-04T16:25:37.348Z,6.77
2018-01-04T16:27:38.399Z,5.57
2018-01-04T16:32:08.057Z,6.20
2018-01-04T16:34:09.171Z,5.50
2018-01-04T16:36:33.061Z,5.13
2018-01-04T16:38:34.079Z,6.10
2018-01-04T16:43:02.701Z,4.80
2018-01-04T16:45:03.661Z,3.30
2018-01-04T16:47:04.623Z,3.50
2018-01-04T16:49:05.665Z,3.20
2018-01-04T16:51:06.632Z,3.30
2018-01-04T16:53:07.628Z,3.40
2018-01-04T16:55:13.884Z,4.20
2018-01-04T16:57:14.880Z,3.40
2018-01-04T17:01:31.164Z,3.27
2018-01-04T17:03:44.228Z,3.70
2018-01-04T17:05:45.255Z,3.70
2018-01-04T17:07:47.078Z,3.90
2018-01-04T17:09:48.088Z,4.97
2018-01-04T17:11:49.073Z,4.13
2018-01-04T17:13:50.087Z,4.60
2018-01-04T17:18:14.059Z,4.87
2018-01-04T17:20:15.067Z,6.23
2018-01-04T17:22:16.060Z,5.07
2018-01-04T17:26:44.621Z,5.40
2018-01-04T17:28:45.569Z,5.60
2018-01-04T17:30:46.508Z,4.97
2018-01-04T17:32:47.478Z,6.33
2018-01-04T17:34:49.216Z,5.40
2018-01-04T17:36:50.187Z,6.30
2018-01-04T17:41:45.648Z,4.80
2018-01-04T17:43:46.721Z,5.10
2018-01-04T17:46:14.534Z,5.83
2018-01-04T17:50:44.118Z,5.07
2018-01-04T17:55:13.026Z,4.57
2018-01-04T17:57:14.935Z,5.80
2018-01-04T18:01:46.381Z,5.23
2018-01-04T18:03:47.506Z,4.67
2018-01-04T18:05:48.802Z,4.40
2018-01-04T18:07:49.977Z,4.20
2018-01-04T18:09:50.990Z,4.73
2018-01-04T18:14:19.793Z,3.53
2018-01-04T18:16:47.069Z,3.57
2018-01-04T18:18:48.082Z,3.67
2018-01-04T18:20:49.108Z,3.33
2018-01-04T18:25:17.955Z,2.80
2018-01-04T18:27:18.995Z,3.13
2018-01-04T18:29:20.028Z,3.17
2018-01-04T18:31:22.029Z,3.57
2018-01-04T18:33:44.122Z,3.33
2018-01-04T18:38:44.212Z,4.50
2018-01-04T18:43:13.096Z,6.30
2018-01-04T18:45:14.835Z,6.87
2018-01-04T18:47:15.831Z,8.60
2018-01-04T18:49:16.815Z,9.27
2018-01-04T18:51:17.790Z,8.77
2018-01-04T18:53:19.529Z,8.67
2018-01-04T18:55:20.502Z,9.07
2018-01-04T18:57:21.492Z,10.37
2018-01-04T18:59:22.469Z,11.30
2018-01-04T19:01:23.491Z,10.37
2018-01-04T19:03:24.487Z,11.30
2018-01-04T19:05:25.432Z,11.20
2018-01-04T19:07:26.407Z,11.67
2018-01-04T19:12:07.587Z,10.90
2018-01-04T19:14:14.879Z,11.87
2018-01-04T19:16:16.531Z,10.70
2018-01-04T19:20:48.433Z,11.00
2018-01-04T19:23:00.842Z,11.87
2018-01-04T19:25:01.834Z,11.60
2018-01-04T19:27:02.849Z,12.40
2018-01-04T19:29:03.846Z,11.57
2018-01-04T19:31:04.836Z,13.70
2018-01-04T19:33:05.855Z,14.07
2018-01-04T19:35:06.829Z,11.33
2018-01-04T19:37:07.786Z,14.77
2018-01-04T19:39:09.773Z,15.63
2018-01-04T19:41:10.754Z,13.80
2018-01-04T19:43:11.691Z,12.47
2018-01-04T19:45:14.365Z,16.00
2018-01-04T19:47:15.309Z,16.17
2018-01-04T19:51:45.617Z,15.13
2018-01-04T19:53:46.659Z,15.73
2018-01-04T19:55:47.618Z,15.57
2018-01-04T20:00:16.022Z,17.30
2018-01-04T20:02:16.976Z,19.37
2018-01-04T20:04:18.032Z,20.37
2018-01-04T20:06:18.936Z,19.70
2018-01-04T20:08:19.888Z,21.00
2018-01-04T20:10:38.688Z,22.67
2018-01-04T20:12:39.718Z,22.10
2018-01-04T20:14:40.665Z,22.00
2018-01-04T20:16:41.638Z,22.90
2018-01-04T20:21:12.839Z,22.27
2018-01-04T20:23:13.835Z,23.77
2018-01-04T20:35:38.135Z,18.77
2018-01-04T20:37:39.121Z,15.90
2018-01-04T20:39:40.093Z,16.70
2018-01-04T20:41:41.060Z,14.53
2018-01-04T20:43:42.338Z,14.10
2018-01-04T20:45:47.452Z,14.10
2018-01-04T20:50:16.038Z,12.20
2018-01-04T20:54:57.611Z,13.17
2018-01-04T20:56:58.625Z,14.17
2018-01-04T21:01:56.308Z,11.00
2018-01-04T21:03:57.658Z,12.40
2018-01-04T21:06:05.618Z,9.50
2018-01-04T21:08:06.665Z,10.13
2018-01-04T21:10:07.641Z,10.60
2018-01-04T21:12:08.617Z,8.30
2018-01-04T21:14:09.628Z,8.00
2018-01-04T21:16:10.750Z,6.40
2018-01-04T21:18:11.734Z,6.57
2018-01-04T21:20:12.822Z,5.97
2018-01-04T21:22:14.745Z,6.30
2018-01-04T21:24:15.932Z,5.57
2018-01-04T21:26:17.132Z,5.67
2018-01-04T21:28:18.172Z,5.57
2018-01-04T21:32:57.181Z,6.27
2018-01-04T21:34:58.519Z,4.50
2018-01-04T21:37:04.052Z,4.80
2018-01-04T21:44:01.744Z,5.47
2018-01-04T21:46:02.833Z,6.00
2018-01-04T21:55:50.167Z,6.77
2018-01-04T22:00:35.954Z,6.30
2018-01-04T22:02:37.190Z,6.23
2018-01-04T22:04:45.735Z,5.33
2018-01-04T22:06:48.884Z,5.80
2018-01-04T22:09:16.133Z,5.67
2018-01-04T22:11:42.304Z,6.30
2018-01-04T22:22:20.531Z,5.90
2018-01-04T22:24:21.717Z,5.20
2018-01-04T22:28:50.937Z,4.83
2018-01-04T22:36:04.830Z,4.93
2018-01-04T22:40:37.789Z,5.60
2018-01-04T22:45:13.964Z,5.27
2018-01-04T22:47:21.983Z,5.47
2018-01-04T22:49:23.925Z,5.60
2018-01-04T22:53:53.914Z,4.63
2018-01-04T23:01:10.491Z,5.03
2018-01-04T23:05:52.230Z,5.40
2018-01-04T23:07:55.028Z,5.03
2018-01-04T23:12:22.023Z,5.73
2018-01-04T23:14:29.394Z,5.30
2018-01-04T23:16:30.538Z,4.23
2018-01-04T23:20:56.760Z,4.50
2018-01-04T23:23:21.882Z,5.20
2018-01-04T23:25:26.933Z,3.40
2018-01-04T23:29:56.674Z,4.40
2018-01-04T23:39:33.072Z,3.80
2018-01-04T23:41:34.261Z,3.50
2018-01-04T23:46:03.533Z,2.90
2018-01-04T23:48:04.596Z,4.17
2018-01-04T23:50:09.260Z,3.17
2018-01-04T23:52:10.811Z,3.07
2018-01-04T23:54:34.884Z,4.20
2018-01-04T23:59:08.569Z,3.23
